Time;durP1;ratioP1;P1;durP2;ratioP2;P2;SDS_P1;SDS_P2;PMS_P1;PMS_P2;Temp;Humidity;BMP_temperature;BMP_pressure;BME280_temperature;BME280_humidity;BME280_pressure;Samples;Min_cycle;Max_cycle;Signal;HPM_P1;HPM_P2
2021/06/26 00:01:24;;;;;;;10.50;8.13;;;;;;;13.74;100.00;96182.66;5017667;28;20424;-78
2021/06/26 00:03:50;;;;;;;10.38;9.13;;;;;;;13.67;100.00;96184.00;5016015;28;20413;-78
2021/06/26 00:06:16;;;;;;;10.02;8.98;;;;;;;13.67;100.00;96184.00;5013086;28;20455;-78
2021/06/26 00:08:41;;;;;;;15.17;9.50;;;;;;;13.72;100.00;96175.88;5012600;28;20460;-78
2021/06/26 00:11:07;;;;;;;10.47;9.40;;;;;;;13.75;100.00;96176.50;5013197;28;20543;-78
2021/06/26 00:13:32;;;;;;;11.77;9.20;;;;;;;13.77;100.00;96184.22;5013485;28;20432;-78
2021/06/26 00:15:58;;;;;;;10.63;8.93;;;;;;;13.79;100.00;96177.97;5011593;28;20439;-78
2021/06/26 00:18:23;;;;;;;13.23;8.85;;;;;;;13.79;100.00;96177.97;5013257;28;20798;-78
2021/06/26 00:20:50;;;;;;;14.18;8.40;;;;;;;13.85;100.00;96181.09;5012957;28;20495;-78
2021/06/26 00:23:16;;;;;;;9.68;8.43;;;;;;;13.95;100.00;96182.13;5013220;28;20770;-78
2021/06/26 00:25:41;;;;;;;8.75;7.90;;;;;;;13.98;100.00;96182.75;5012267;28;20455;-78
2021/06/26 00:28:07;;;;;;;9.02;8.25;;;;;;;13.97;100.00;96177.63;5013170;28;20417;-78
2021/06/26 00:30:35;;;;;;;10.05;8.20;;;;;;;14.02;100.00;96178.16;5012038;28;22471;-78
2021/06/26 00:33:00;;;;;;;10.25;9.25;;;;;;;14.00;100.00;96175.63;5012828;28;20492;-78
2021/06/26 00:35:27;;;;;;;9.88;8.80;;;;;;;13.96;100.00;96174.19;5012582;28;20926;-78
2021/06/26 00:37:54;;;;;;;11.15;8.35;;;;;;;14.04;100.00;96184.06;5012852;28;20483;-78
2021/06/26 00:40:19;;;;;;;8.98;8.07;;;;;;;14.02;100.00;96178.97;5012026;28;20451;-78
2021/06/26 00:42:45;;;;;;;9.77;8.50;;;;;;;14.02;100.00;96178.16;5010894;28;20456;-78
2021/06/26 00:45:13;;;;;;;9.50;8.50;;;;;;;13.87;100.00;96172.25;5011751;28;20440;-78
2021/06/26 00:47:39;;;;;;;8.93;8.03;;;;;;;13.65;100.00;96170.28;5012368;28;20507;-78
2021/06/26 00:50:11;;;;;;;9.63;8.70;;;;;;;13.66;100.00;96158.91;5011579;28;20467;-78
2021/06/26 00:52:36;;;;;;;11.27;8.30;;;;;;;13.76;100.00;96166.94;5012159;28;20883;-78
2021/06/26 00:55:05;;;;;;;9.80;8.38;;;;;;;13.85;100.00;96165.47;5011969;28;20425;-78
2021/06/26 00:57:33;;;;;;;10.13;8.60;;;;;;;13.89;100.00;96162.53;5010784;28;20452;-78
2021/06/26 00:59:58;;;;;;;9.20;8.30;;;;;;;13.92;100.00;96159.72;5010223;28;20930;-78
2021/06/26 01:02:24;;;;;;;9.73;7.85;;;;;;;13.92;100.00;96159.72;5011550;28;20419;-78
2021/06/26 01:04:49;;;;;;;8.70;7.83;;;;;;;13.96;100.00;96160.34;5011251;28;20882;-78
2021/06/26 01:07:15;;;;;;;12.70;8.77;;;;;;;14.01;100.00;96160.84;5011158;28;20507;-78
2021/06/26 01:09:41;;;;;;;10.37;9.30;;;;;;;14.04;100.00;96163.22;5011525;28;20561;-78
2021/06/26 01:12:08;;;;;;;9.57;8.05;;;;;;;14.10;100.00;96162.81;5015655;28;20418;-78
2021/06/26 01:14:34;;;;;;;9.65;8.63;;;;;;;14.14;100.00;96163.44;5015586;28;20416;-78
2021/06/26 01:17:04;;;;;;;10.75;8.40;;;;;;;14.23;100.00;96160.16;5015094;28;20976;-78
2021/06/26 01:19:29;;;;;;;11.20;7.70;;;;;;;14.17;100.00;96161.44;5015530;28;20779;-78
2021/06/26 01:21:54;;;;;;;10.70;8.27;;;;;;;14.16;100.00;96153.72;5015281;28;20409;-78
2021/06/26 01:24:21;;;;;;;9.48;8.00;;;;;;;14.20;100.00;96163.81;5015691;28;20416;-78
2021/06/26 01:26:54;;;;;;;9.75;7.03;;;;;;;14.20;100.00;96158.63;5014086;28;20428;-78
2021/06/26 01:29:19;;;;;;;7.78;6.65;;;;;;;14.39;100.00;96159.91;5014619;28;20499;-78
2021/06/26 01:31:45;;;;;;;11.98;7.45;;;;;;;14.38;100.00;96159.06;5014184;28;20867;-78
2021/06/26 01:34:10;;;;;;;11.40;7.67;;;;;;;14.44;100.00;96156.03;5015339;28;20423;-78
2021/06/26 01:36:35;;;;;;;9.33;7.73;;;;;;;14.23;100.00;96150.56;5015018;28;20463;-78
2021/06/26 01:39:01;;;;;;;8.43;7.35;;;;;;;14.22;100.00;96148.91;5015259;28;20416;-78
2021/06/26 01:41:32;;;;;;;9.75;7.32;;;;;;;14.14;100.00;96138.22;5015126;28;20413;-78
2021/06/26 01:43:58;;;;;;;8.30;7.15;;;;;;;13.98;100.00;96148.06;5015668;28;20514;-78
2021/06/26 01:46:23;;;;;;;8.40;7.43;;;;;;;13.93;100.00;96140.53;5013745;28;20516;-78
2021/06/26 01:48:49;;;;;;;8.20;7.33;;;;;;;13.92;100.00;96145.88;5012701;28;20421;-77
2021/06/26 01:51:14;;;;;;;8.37;7.47;;;;;;;13.90;100.00;96143.34;5013788;28;20416;-77
2021/06/26 01:53:40;;;;;;;8.68;7.82;;;;;;;13.92;100.00;96145.88;5013913;28;20432;-77
2021/06/26 01:56:05;;;;;;;8.57;7.67;;;;;;;13.82;100.00;96145.66;5012281;28;20483;-78
2021/06/26 01:58:32;;;;;;;8.50;7.60;;;;;;;13.70;100.00;96141.31;5012541;28;20413;-77
2021/06/26 02:00:57;;;;;;;10.95;8.23;;;;;;;13.66;100.00;96140.69;5013914;28;20408;-77
2021/06/26 02:03:23;;;;;;;10.77;8.27;;;;;;;13.53;100.00;96138.13;5013768;28;20417;-77
2021/06/26 02:05:48;;;;;;;11.60;8.17;;;;;;;13.44;100.00;96130.09;5013356;28;20409;-77
2021/06/26 02:08:14;;;;;;;9.97;8.37;;;;;;;13.36;100.00;96135.84;5013686;28;20513;-77
2021/06/26 02:10:39;;;;;;;8.98;8.07;;;;;;;13.35;100.00;96126.38;5013662;28;20428;-78
2021/06/26 02:13:05;;;;;;;9.67;8.30;;;;;;;13.50;100.00;96129.69;5013549;28;20413;-77
2021/06/26 02:15:31;;;;;;;10.93;7.57;;;;;;;13.60;100.00;96125.50;5012113;28;20416;-77
2021/06/26 02:17:57;;;;;;;11.60;8.30;;;;;;;13.66;100.00;96130.28;5012342;28;20814;-78
2021/06/26 02:20:22;;;;;;;8.87;7.60;;;;;;;13.67;100.00;96126.75;5013394;28;20419;-77
2021/06/26 02:22:47;;;;;;;8.33;7.20;;;;;;;13.69;100.00;96124.06;5012016;28;20845;-78
2021/06/26 02:25:15;;;;;;;8.23;7.43;;;;;;;13.71;100.00;96124.75;5013039;28;20463;-78
2021/06/26 02:27:41;;;;;;;8.93;7.20;;;;;;;13.77;100.00;96135.59;5013371;28;20508;-77
2021/06/26 02:30:08;;;;;;;8.52;7.47;;;;;;;13.84;100.00;96132.56;5013205;28;20802;-77
2021/06/26 02:32:35;;;;;;;9.40;7.53;;;;;;;13.87;100.00;96134.94;5013163;28;20447;-77
2021/06/26 02:35:01;;;;;;;9.40;8.07;;;;;;;14.04;100.00;96134.59;5012953;28;20498;-77
2021/06/26 02:37:26;;;;;;;9.38;7.20;;;;;;;14.00;100.00;96131.38;5012265;28;20509;-77
2021/06/26 02:39:51;;;;;;;9.70;7.50;;;;;;;13.91;100.00;96133.81;5004807;28;20793;-77
2021/06/26 02:42:17;;;;;;;9.20;7.70;;;;;;;13.91;100.00;96131.19;5011827;28;20635;-77
2021/06/26 02:44:43;;;;;;;9.00;6.80;;;;;;;14.09;100.00;96132.50;5012885;28;20409;-78
2021/06/26 02:47:09;;;;;;;19.23;8.30;;;;;;;14.12;100.00;96132.25;5003055;28;20428;-77
2021/06/26 02:49:35;;;;;;;9.20;7.07;;;;;;;13.99;100.00;96132.31;5012726;28;20426;-77
2021/06/26 02:52:01;;;;;;;8.65;7.75;;;;;;;13.88;100.00;96131.41;5012918;28;20471;-77
2021/06/26 02:54:26;;;;;;;9.75;7.60;;;;;;;13.74;100.00;96130.59;5013128;28;20421;-77
2021/06/26 02:56:52;;;;;;;8.87;7.97;;;;;;;13.75;100.00;96134.84;5012486;28;20448;-77
2021/06/26 02:59:17;;;;;;;8.80;7.17;;;;;;;13.82;100.00;96130.03;5011783;28;20421;-77
2021/06/26 03:01:43;;;;;;;8.33;7.53;;;;;;;13.86;100.00;96138.47;5012197;28;20523;-77
2021/06/26 03:04:08;;;;;;;7.95;7.18;;;;;;;13.93;100.00;96130.13;5014112;28;20413;-78
2021/06/26 03:06:35;;;;;;;7.80;7.00;;;;;;;14.09;100.00;96132.50;5012359;28;20413;-77
2021/06/26 03:09:00;;;;;;;9.25;7.60;;;;;;;14.18;100.00;96131.84;5003036;28;20513;-77
2021/06/26 03:11:26;;;;;;;10.60;8.60;;;;;;;14.37;100.00;96128.75;5012605;28;21014;-77
2021/06/26 03:13:51;;;;;;;11.63;7.90;;;;;;;14.22;100.00;96128.06;5011272;28;20432;-77
2021/06/26 03:16:17;;;;;;;8.60;7.80;;;;;;;14.29;100.00;96131.06;5010773;28;20524;-77
2021/06/26 03:18:45;;;;;;;9.93;8.73;;;;;;;14.14;100.00;96125.19;5012328;28;20412;-78
2021/06/26 03:21:11;;;;;;;11.07;8.18;;;;;;;14.07;100.00;96116.13;4999940;28;20430;-77
2021/06/26 03:23:39;;;;;;;12.45;8.15;;;;;;;13.97;100.00;96112.53;5012240;28;20460;-77
2021/06/26 03:26:06;;;;;;;10.82;8.05;;;;;;;14.07;100.00;96108.31;5011937;28;20460;-77
2021/06/26 03:28:31;;;;;;;10.63;8.07;;;;;;;14.02;100.00;96123.47;5011051;28;20428;-77
2021/06/26 03:30:56;;;;;;;11.07;7.50;;;;;;;14.02;100.00;96115.66;5010935;28;20481;-77
2021/06/26 03:33:22;;;;;;;9.55;7.45;;;;;;;14.15;100.00;96113.81;5011716;28;20507;-77
2021/06/26 03:35:47;;;;;;;12.73;8.37;;;;;;;14.35;100.00;96122.81;5011870;28;20779;-77
2021/06/26 03:38:13;;;;;;;9.93;8.03;;;;;;;14.41;100.00;96118.94;5010732;28;20424;-77
2021/06/26 03:40:39;;;;;;;18.17;8.80;;;;;;;14.22;100.00;96122.84;5010905;28;20459;-77
2021/06/26 03:43:05;;;;;;;9.20;8.13;;;;;;;13.96;100.00;96127.31;5011031;28;20425;-77
2021/06/26 03:45:30;;;;;;;9.57;8.60;;;;;;;13.84;100.00;96125.59;4997268;28;20504;-77
2021/06/26 03:47:56;;;;;;;10.18;8.40;;;;;;;13.91;100.00;96128.59;4992344;28;20517;-77
2021/06/26 03:50:21;;;;;;;8.77;7.60;;;;;;;13.97;100.00;96123.75;4992232;28;20427;-77
2021/06/26 03:52:47;;;;;;;9.90;8.30;;;;;;;13.96;100.00;96116.91;4992342;28;20419;-77
2021/06/26 03:55:13;;;;;;;8.93;7.83;;;;;;;13.93;100.00;96118.88;4991873;28;20414;-77
2021/06/26 03:57:40;;;;;;;9.65;7.88;;;;;;;13.89;100.00;96120.88;4992168;28;20437;-77
2021/06/26 04:00:07;;;;;;;9.13;7.47;;;;;;;13.87;100.00;96127.13;4990765;28;20525;-77
2021/06/26 04:02:32;;;;;;;11.23;7.60;;;;;;;13.94;100.00;96129.22;4991892;28;20450;-77
2021/06/26 04:04:57;;;;;;;8.88;7.55;;;;;;;14.14;100.00;96134.78;4991855;28;20480;-77
2021/06/26 04:07:23;;;;;;;9.18;7.72;;;;;;;14.37;100.00;96133.94;4991808;28;20418;-77
2021/06/26 04:09:48;;;;;;;8.53;7.30;;;;;;;14.47;100.00;96129.75;4991879;28;20470;-77
2021/06/26 04:12:14;;;;;;;9.47;7.83;;;;;;;14.35;100.00;96133.25;4991806;28;20414;-77
2021/06/26 04:14:41;;;;;;;13.27;8.33;;;;;;;14.25;100.00;96133.06;4991711;28;20836;-77
2021/06/26 04:17:06;;;;;;;9.75;7.82;;;;;;;14.19;100.00;96125.69;4991403;28;20724;-77
2021/06/26 04:19:31;;;;;;;9.70;8.47;;;;;;;14.20;100.00;96129.09;4991739;28;20438;-76
2021/06/26 04:21:57;;;;;;;16.73;8.27;;;;;;;14.20;100.00;96132.56;4991695;28;20414;-77
2021/06/26 04:24:22;;;;;;;11.77;7.80;;;;;;;14.08;100.00;96136.03;4991672;28;20421;-77
2021/06/26 04:26:48;;;;;;;9.63;8.37;;;;;;;13.94;100.00;96133.56;4991251;28;20847;-77
2021/06/26 04:29:13;;;;;;;8.83;8.03;;;;;;;13.89;100.00;96135.66;4990268;28;20436;-77
2021/06/26 04:31:40;;;;;;;9.80;7.37;;;;;;;13.87;100.00;96134.94;4991385;28;20423;-76
2021/06/26 04:34:06;;;;;;;11.00;8.05;;;;;;;13.92;100.00;96130.25;4991675;28;20897;-77
2021/06/26 04:36:31;;;;;;;8.13;7.37;;;;;;;13.99;100.00;96123.66;4991158;28;20411;-77
2021/06/26 04:38:56;;;;;;;10.82;7.95;;;;;;;13.96;100.00;96129.09;4990123;28;20932;-77
2021/06/26 04:41:22;;;;;;;8.88;7.97;;;;;;;13.84;100.00;96133.38;4990121;28;20526;-77
2021/06/26 04:43:48;;;;;;;11.10;7.65;;;;;;;13.80;100.00;96134.53;4989494;28;20481;-77
2021/06/26 04:46:14;;;;;;;9.23;7.93;;;;;;;13.74;100.00;96135.78;4989435;28;20426;-77
2021/06/26 04:48:41;;;;;;;8.07;7.28;;;;;;;13.87;100.00;96127.97;4991271;28;20429;-77
2021/06/26 04:51:08;;;;;;;8.68;7.78;;;;;;;13.94;100.00;96131.81;4991091;28;20434;-77
2021/06/26 04:53:33;;;;;;;10.47;9.03;;;;;;;14.02;100.00;96124.28;4991406;28;20441;-77
2021/06/26 04:55:59;;;;;;;13.60;8.43;;;;;;;14.00;100.00;96120.94;4993632;28;20418;-77
2021/06/26 04:58:24;;;;;;;10.77;8.40;;;;;;;14.12;100.00;96128.81;5008380;28;20496;-77
2021/06/26 05:00:51;;;;;;;10.27;8.00;;;;;;;14.14;100.00;96127.78;5000402;28;20427;-77
2021/06/26 05:03:17;;;;;;;11.30;8.30;;;;;;;14.29;100.00;96134.50;5002419;28;20451;-77
2021/06/26 05:05:44;;;;;;;10.90;8.40;;;;;;;14.43;100.00;96130.91;5009155;28;20433;-77
2021/06/26 05:08:09;;;;;;;9.45;7.85;;;;;;;14.57;100.00;96132.53;5001282;28;20429;-77
2021/06/26 05:10:35;;;;;;;9.00;8.00;;;;;;;14.66;100.00;96133.66;5009416;28;20800;-77
2021/06/26 05:13:00;;;;;;;8.73;7.53;;;;;;;14.48;100.00;96135.78;5010915;28;20451;-77
2021/06/26 05:15:27;;;;;;;9.53;7.83;;;;;;;14.46;100.00;96132.44;5009188;28;20957;-77
2021/06/26 05:17:52;;;;;;;8.90;7.82;;;;;;;14.49;100.00;96127.88;5010600;28;20467;-77
2021/06/26 05:20:18;;;;;;;8.90;8.00;;;;;;;14.40;100.00;96125.91;4996800;28;20430;-77
2021/06/26 05:22:45;;;;;;;8.27;7.47;;;;;;;14.45;100.00;96126.41;5001364;28;20784;-77
2021/06/26 05:25:11;;;;;;;11.70;7.88;;;;;;;14.67;100.00;96123.09;5006723;28;20477;-77
2021/06/26 05:27:37;;;;;;;9.52;8.52;;;;;;;14.73;100.00;96127.88;5006299;28;20483;-77
2021/06/26 05:30:04;;;;;;;10.40;7.93;;;;;;;14.98;100.00;96128.63;5010255;28;20923;-77
2021/06/26 05:32:29;;;;;;;11.10;8.43;;;;;;;15.22;100.00;96132.03;5010452;28;20436;-77
2021/06/26 05:34:54;;;;;;;10.00;7.83;;;;;;;15.35;100.00;96129.34;5009233;28;20902;-76
2021/06/26 05:37:20;;;;;;;9.43;8.30;;;;;;;15.40;100.00;96126.38;5010208;28;20408;-76
2021/06/26 05:39:47;;;;;;;14.10;8.50;;;;;;;15.77;100.00;96136.63;5010380;28;20953;-76
2021/06/26 05:42:12;;;;;;;14.13;9.00;;;;;;;15.85;100.00;96132.47;5009264;28;20454;-77
2021/06/26 05:44:37;;;;;;;9.95;8.50;;;;;;;15.77;100.00;96141.84;5009080;28;21016;-77
2021/06/26 05:47:04;;;;;;;10.40;9.10;;;;;;;15.64;100.00;96140.13;5008786;28;20834;-76
2021/06/26 05:49:29;;;;;;;11.23;9.05;;;;;;;15.55;100.00;96143.47;5010393;28;20478;-76
2021/06/26 05:51:54;;;;;;;15.25;9.45;;;;;;;15.57;100.00;96136.31;5010451;28;20416;-76
2021/06/26 05:54:20;;;;;;;11.90;10.50;;;;;;;15.62;100.00;96139.44;5010296;28;20470;-76
2021/06/26 05:56:47;;;;;;;11.27;9.63;;;;;;;15.48;100.00;96142.28;5012803;28;20985;-76
2021/06/26 05:59:12;;;;;;;11.77;9.85;;;;;;;15.59;99.21;96141.44;5013833;28;20412;-76
2021/06/26 06:01:38;;;;;;;14.43;10.73;;;;;;;15.77;100.00;96144.47;5014931;28;20503;-76
2021/06/26 06:04:06;;;;;;;12.60;11.30;;;;;;;15.98;100.00;96148.00;5017590;28;20444;-77
2021/06/26 06:06:32;;;;;;;14.63;11.87;;;;;;;16.09;98.21;96148.00;5016264;28;20918;-77
2021/06/26 06:08:57;;;;;;;9.47;8.63;;;;;;;16.14;98.12;96142.41;5014437;28;20467;-77
2021/06/26 06:11:22;;;;;;;15.10;10.43;;;;;;;16.10;97.35;96147.03;5013952;28;20455;-77
2021/06/26 06:13:49;;;;;;;14.30;10.13;;;;;;;16.22;97.35;96150.47;5013657;28;20917;-77
2021/06/26 06:16:14;;;;;;;10.77;9.73;;;;;;;16.43;97.84;96148.75;5013424;28;20415;-77
2021/06/26 06:18:40;;;;;;;12.23;10.80;;;;;;;16.70;98.28;96137.03;5012538;28;20417;-77
2021/06/26 06:21:05;;;;;;;14.37;12.87;;;;;;;17.02;97.93;96139.66;5013717;28;20417;-77
2021/06/26 06:23:31;;;;;;;15.07;12.83;;;;;;;17.11;97.03;96133.66;5012418;28;20475;-77
2021/06/26 06:25:56;;;;;;;16.13;12.80;;;;;;;17.42;95.11;96144.16;5013201;28;20444;-77
2021/06/26 06:28:21;;;;;;;14.83;13.20;;;;;;;17.67;92.56;96138.50;5013353;28;20467;-77
2021/06/26 06:30:48;;;;;;;15.90;14.23;;;;;;;17.72;88.31;96138.09;5012136;28;20480;-77
2021/06/26 06:33:14;;;;;;;16.63;14.15;;;;;;;17.80;91.87;96140.13;5013279;28;20840;-77
2021/06/26 06:35:39;;;;;;;17.40;13.35;;;;;;;18.06;90.73;96138.69;5012950;28;20468;-77
2021/06/26 06:38:05;;;;;;;16.03;14.17;;;;;;;18.37;92.26;96143.88;5012024;28;20515;-76
2021/06/26 06:40:30;;;;;;;16.67;14.90;;;;;;;18.52;89.81;96141.69;5013133;28;20417;-76
2021/06/26 06:42:56;;;;;;;18.30;14.20;;;;;;;18.42;89.45;96144.28;5011695;28;20424;-76
2021/06/26 06:45:22;;;;;;;18.25;15.38;;;;;;;18.78;86.16;96149.91;5012622;28;20420;-77
2021/06/26 06:47:48;;;;;;;18.40;16.48;;;;;;;18.92;88.21;96144.25;5013139;28;20783;-76
2021/06/26 06:50:14;;;;;;;19.63;15.95;;;;;;;19.08;83.63;96146.28;5012962;28;20429;-77
2021/06/26 06:52:39;;;;;;;21.73;16.52;;;;;;;19.33;83.42;96145.72;5012850;28;20424;-76
2021/06/26 06:55:07;;;;;;;21.48;15.45;;;;;;;19.08;80.94;96147.13;5013472;28;20424;-73
2021/06/26 06:57:33;;;;;;;16.38;14.68;;;;;;;19.16;83.11;96156.09;5013124;28;20487;-77
2021/06/26 06:59:58;;;;;;;17.03;15.23;;;;;;;18.86;81.80;96160.53;4997906;28;20442;-77
2021/06/26 07:02:23;;;;;;;18.13;14.13;;;;;;;19.02;83.66;96158.19;5005714;28;20483;-77
2021/06/26 07:04:50;;;;;;;22.87;16.20;;;;;;;19.32;83.42;96151.13;4996989;28;20478;-76
2021/06/26 07:07:16;;;;;;;16.40;14.70;;;;;;;19.13;84.41;96157.19;5005755;28;20920;-76
2021/06/26 07:09:41;;;;;;;15.23;13.63;;;;;;;19.15;82.58;96151.81;5007114;28;20463;-77
2021/06/26 07:12:08;;;;;;;16.73;13.90;;;;;;;19.26;82.44;96149.03;5011637;28;20504;-77
2021/06/26 07:14:33;;;;;;;17.15;14.65;;;;;;;19.50;79.15;96146.78;5011881;28;20467;-77
2021/06/26 07:16:59;;;;;;;15.27;13.63;;;;;;;19.51;79.43;96148.44;5010724;28;20440;-77
2021/06/26 07:19:24;;;;;;;18.13;13.10;;;;;;;19.39;77.85;96157.44;5012116;28;20504;-77
2021/06/26 07:21:51;;;;;;;14.70;13.23;;;;;;;19.29;75.87;96154.84;5012088;28;20445;-76
2021/06/26 07:24:17;;;;;;;21.48;13.50;;;;;;;19.20;78.65;96144.34;5012174;28;20778;-76
2021/06/26 07:26:42;;;;;;;16.87;14.60;;;;;;;19.41;77.00;96152.06;5011744;28;20479;-77
2021/06/26 07:29:08;;;;;;;17.08;14.23;;;;;;;19.49;78.48;96150.38;5011473;28;20421;-76
2021/06/26 07:31:33;;;;;;;15.47;13.70;;;;;;;19.62;78.70;96149.25;5010777;28;20447;-76
2021/06/26 07:33:59;;;;;;;15.73;12.10;;;;;;;19.52;74.40;96152.72;5010655;28;20469;-76
2021/06/26 07:36:25;;;;;;;13.03;10.73;;;;;;;19.52;73.28;96152.72;5011665;28;20417;-76
2021/06/26 07:38:52;;;;;;;11.77;10.40;;;;;;;19.39;76.07;96148.72;5010707;28;20918;-77
2021/06/26 07:41:18;;;;;;;12.93;11.07;;;;;;;19.65;76.10;96148.97;5011912;28;20460;-77
2021/06/26 07:43:43;;;;;;;15.82;12.25;;;;;;;19.77;75.21;96143.41;5023170;28;20419;-76
2021/06/26 07:46:09;;;;;;;13.80;11.98;;;;;;;20.04;75.46;96150.50;5029814;28;20427;-77
2021/06/26 07:48:35;;;;;;;15.32;12.25;;;;;;;20.33;74.63;96144.28;5031284;28;20847;-77
2021/06/26 07:51:01;;;;;;;14.30;12.25;;;;;;;20.54;73.56;96139.59;5031552;28;20430;-78
2021/06/26 07:53:26;;;;;;;13.88;12.20;;;;;;;20.39;73.94;96141.03;5015548;28;20408;-78
2021/06/26 07:55:53;;;;;;;14.13;11.98;;;;;;;20.15;72.14;96140.75;5013508;28;20451;-78
2021/06/26 07:58:19;;;;;;;14.80;12.27;;;;;;;20.04;75.34;96132.09;5010673;28;20429;-77
2021/06/26 08:00:47;;;;;;;16.00;13.35;;;;;;;19.93;74.14;96124.41;5011229;28;20415;-77
2021/06/26 08:03:12;;;;;;;14.82;12.55;;;;;;;20.04;73.07;96133.91;5010098;28;20504;-76
2021/06/26 08:05:37;;;;;;;16.13;13.18;;;;;;;20.11;75.14;96124.44;5009928;28;20519;-74
2021/06/26 08:08:03;;;;;;;16.03;11.73;;;;;;;20.07;73.74;96125.72;5011147;28;20412;-77
2021/06/26 08:10:29;;;;;;;12.37;10.90;;;;;;;20.18;75.03;96129.97;5009820;28;20424;-77
2021/06/26 08:12:55;;;;;;;14.37;11.10;;;;;;;20.11;73.32;96128.88;5011217;28;20420;-73
2021/06/26 08:15:21;;;;;;;12.43;11.18;;;;;;;19.76;71.79;96123.38;5009282;28;20424;-77
2021/06/26 08:17:47;;;;;;;13.60;11.02;;;;;;;19.71;74.50;96120.34;5011370;28;20867;-77
2021/06/26 08:20:13;;;;;;;12.90;11.15;;;;;;;19.79;77.74;96130.13;5010983;28;20511;-77
2021/06/26 08:22:40;;;;;;;15.95;11.60;;;;;;;19.90;76.13;96129.94;5010679;28;20424;-77
2021/06/26 08:25:06;;;;;;;13.00;11.70;;;;;;;19.44;74.80;96128.16;5009167;28;20428;-77
2021/06/26 08:27:31;;;;;;;12.52;11.23;;;;;;;19.76;76.60;96131.25;5009308;28;20934;-76
2021/06/26 08:29:58;;;;;;;13.77;11.50;;;;;;;19.93;73.89;96124.41;5009323;28;20428;-76
2021/06/26 08:32:24;;;;;;;12.70;11.40;;;;;;;19.89;77.28;96117.78;5009638;28;20420;-76
2021/06/26 08:34:49;;;;;;;14.70;11.07;;;;;;;19.69;73.90;96114.41;5010714;28;20416;-76
2021/06/26 08:37:14;;;;;;;12.97;10.23;;;;;;;19.77;77.98;96116.31;5010234;28;20501;-77
2021/06/26 08:39:40;;;;;;;11.83;9.93;;;;;;;19.82;75.09;96122.78;5010563;28;20451;-77
2021/06/26 08:42:07;;;;;;;12.93;9.90;;;;;;;20.00;75.85;96122.84;5010859;28;20416;-76
2021/06/26 08:44:32;;;;;;;12.68;11.38;;;;;;;19.98;74.52;96110.81;5009040;28;20439;-76
2021/06/26 08:46:59;;;;;;;10.73;9.63;;;;;;;19.77;74.03;96111.06;5010162;28;20509;-76
2021/06/26 08:49:25;;;;;;;12.25;10.50;;;;;;;20.02;76.20;96118.28;5009233;28;20435;-76
2021/06/26 08:51:52;;;;;;;10.43;9.27;;;;;;;19.41;75.35;96121.38;5010426;28;20822;-77
2021/06/26 08:54:18;;;;;;;10.10;8.98;;;;;;;19.38;78.72;96121.66;4999523;28;20433;-76
2021/06/26 08:56:45;;;;;;;16.67;9.43;;;;;;;19.40;78.38;96116.28;4990408;28;20501;-76
2021/06/26 08:59:11;;;;;;;11.00;9.23;;;;;;;19.79;76.82;96111.72;4997172;28;20415;-77
2021/06/26 09:01:38;;;;;;;10.80;9.47;;;;;;;19.90;77.67;96110.72;4991207;28;20420;-76
2021/06/26 09:04:07;;;;;;;13.90;10.00;;;;;;;19.74;72.77;96108.72;4994112;28;20422;-77
2021/06/26 09:06:48;;;;;;;10.60;9.03;;;;;;;19.94;74.54;96114.69;4995274;28;20422;-77
2021/06/26 09:09:14;;;;;;;13.60;9.65;;;;;;;20.23;76.95;96110.13;4991515;28;20418;-77
2021/06/26 09:11:40;;;;;;;10.30;9.25;;;;;;;20.10;71.53;96108.81;4991706;28;20517;-76
2021/06/26 09:14:16;;;;;;;12.03;9.60;;;;;;;20.00;73.18;96096.56;5009384;28;20512;-77
2021/06/26 09:16:48;;;;;;;10.00;9.00;;;;;;;20.33;74.62;96099.56;5010115;28;20496;-77
2021/06/26 09:19:15;;;;;;;11.80;10.70;;;;;;;20.96;74.66;96091.59;5010169;28;20500;-76
2021/06/26 09:21:40;;;;;;;11.82;10.55;;;;;;;21.08;73.26;96094.00;4995028;28;20441;-76
2021/06/26 09:24:08;;;;;;;11.20;9.60;;;;;;;20.64;71.10;96093.97;4990689;28;21000;-77
2021/06/26 09:26:35;;;;;;;11.73;8.77;;;;;;;21.02;69.73;96091.00;4990981;28;20440;-72
2021/06/26 09:29:09;;;;;;;10.00;8.63;;;;;;;21.48;65.65;96091.66;4999305;28;20930;-75
2021/06/26 09:31:34;;;;;;;9.55;8.65;;;;;;;22.02;66.34;96088.78;5011034;28;20479;-76
2021/06/26 09:34:01;;;;;;;9.23;7.87;;;;;;;22.23;66.77;96091.84;5013944;28;20910;-75
2021/06/26 09:36:31;;;;;;;8.63;7.68;;;;;;;22.08;65.38;96088.16;5013528;28;20412;-76
2021/06/26 09:39:01;;;;;;;9.65;8.15;;;;;;;21.73;66.33;96092.63;5013653;28;20512;-75
2021/06/26 09:41:28;;;;;;;9.45;7.85;;;;;;;21.50;69.72;96086.22;5013734;28;20937;-76
2021/06/26 09:43:53;;;;;;;9.50;8.18;;;;;;;21.65;67.34;96082.03;5000654;28;20465;-74
2021/06/26 09:46:20;;;;;;;11.27;8.05;;;;;;;21.77;64.87;96093.13;4993466;28;20840;-74
2021/06/26 09:48:50;;;;;;;8.32;7.53;;;;;;;21.84;67.67;96091.53;4994161;28;20816;-74
2021/06/26 09:51:17;;;;;;;9.07;8.05;;;;;;;22.11;66.62;96089.66;4993972;28;20449;-74
2021/06/26 09:53:54;;;;;;;8.77;7.22;;;;;;;22.36;64.17;96091.41;5002423;28;20473;-74
2021/06/26 09:56:19;;;;;;;11.35;8.75;;;;;;;22.52;62.37;96092.44;4993187;28;20424;-74
2021/06/26 09:58:49;;;;;;;10.90;9.23;;;;;;;22.61;66.59;96089.63;5001064;28;20512;-74
2021/06/26 10:01:14;;;;;;;9.23;8.27;;;;;;;22.26;58.21;96090.72;4993830;28;20419;-74
2021/06/26 10:03:40;;;;;;;10.13;7.47;;;;;;;22.19;59.62;96095.81;4993748;28;20473;-74
2021/06/26 10:06:06;;;;;;;10.32;8.52;;;;;;;22.07;60.83;96090.97;5011435;28;20452;-74
2021/06/26 10:08:32;;;;;;;9.90;7.68;;;;;;;21.97;61.85;96096.34;5013351;28;20420;-74
2021/06/26 10:10:59;;;;;;;8.40;7.53;;;;;;;21.85;62.89;96095.00;5013163;28;20520;-74
2021/06/26 10:13:25;;;;;;;9.93;8.93;;;;;;;21.91;65.91;96097.78;5003830;28;20453;-74
2021/06/26 10:15:51;;;;;;;10.57;9.25;;;;;;;22.26;63.46;96090.72;4993099;28;20453;-74
2021/06/26 10:18:16;;;;;;;13.93;10.77;;;;;;;22.63;60.45;96086.84;4993565;28;20456;-74
2021/06/26 10:20:43;;;;;;;11.47;10.00;;;;;;;22.60;63.23;96081.88;4993446;28;20509;-74
2021/06/26 10:23:09;;;;;;;11.23;10.05;;;;;;;22.63;63.19;96086.84;5003480;28;20910;-74
2021/06/26 10:25:36;;;;;;;10.18;9.18;;;;;;;22.80;62.84;96075.28;5011054;28;20631;-75
2021/06/26 10:28:04;;;;;;;10.07;8.70;;;;;;;22.67;64.47;96080.22;5012408;28;20421;-76
2021/06/26 10:30:30;;;;;;;11.23;8.57;;;;;;;22.49;62.38;96079.53;5012752;28;20786;-75
2021/06/26 10:32:57;;;;;;;10.90;8.77;;;;;;;22.24;61.36;96082.13;5012897;28;20413;-75
2021/06/26 10:35:25;;;;;;;10.40;8.40;;;;;;;22.38;64.21;96073.59;5012370;28;21001;-76
2021/06/26 10:38:06;;;;;;;10.93;8.50;;;;;;;22.22;62.93;96076.19;4993102;28;20493;-75
2021/06/26 10:40:40;;;;;;;9.27;7.95;;;;;;;22.05;64.59;96071.81;4992212;28;20419;-76
2021/06/26 10:43:19;;;;;;;8.27;7.43;;;;;;;22.26;62.08;96082.78;4990854;28;20422;-76
2021/06/26 10:45:45;;;;;;;9.05;7.78;;;;;;;21.67;61.24;96072.16;4991747;28;20458;-76
2021/06/26 10:48:16;;;;;;;9.43;8.20;;;;;;;22.05;61.67;96072.63;4992351;28;20804;-73
2021/06/26 10:50:46;;;;;;;8.45;7.43;;;;;;;22.09;62.27;96068.69;4992979;28;20426;-75
2021/06/26 10:53:22;;;;;;;9.70;7.80;;;;;;;22.34;62.63;96064.34;4993191;28;20415;-75
2021/06/26 10:55:57;;;;;;;8.95;7.75;;;;;;;22.35;62.01;96060.72;4997119;28;20425;-76
2021/06/26 10:58:29;;;;;;;9.33;7.90;;;;;;;22.44;61.05;96067.66;5011616;28;20420;-76
2021/06/26 11:00:55;;;;;;;12.00;8.80;;;;;;;23.10;61.71;96057.13;5012744;28;20822;-75
2021/06/26 11:03:24;;;;;;;9.77;8.30;;;;;;;22.89;62.20;96065.56;5010441;28;20417;-75
2021/06/26 11:05:50;;;;;;;36.50;15.57;;;;;;;22.45;62.97;96068.50;5008198;28;20432;-76
2021/06/26 11:08:17;;;;;;;12.52;8.55;;;;;;;22.48;61.72;96073.44;5012518;28;20408;-75
2021/06/26 11:10:50;;;;;;;11.47;8.40;;;;;;;22.43;61.52;96075.72;5012441;28;20465;-75
2021/06/26 11:13:17;;;;;;;9.85;8.48;;;;;;;22.59;59.78;96065.22;5012431;28;20409;-77
2021/06/26 11:15:44;;;;;;;8.75;7.43;;;;;;;22.67;60.80;96059.94;5011577;28;20814;-77
2021/06/26 11:18:14;;;;;;;8.98;7.80;;;;;;;22.82;59.17;96059.28;5012336;28;20413;-75